FNCA

Cabinda Airport

Cabinda, Angola
METAR FNCA 221500Z 22007KT 9999 FEW020 BKN023 27/22 Q1010
Observed Flight Rules
May-22 @ 15:00 UTC (3 hours ago) Marginal Visual Flight Rules
Wind Visibility Clouds
220° at 7 knots 10,000+ meters
  • Few at 2,000' AGL
  • Broken at 2,300' AGL
Temperatures Readings
Current 27°C / 81°F
Dewpoint 22°C / 72°F
Humidity 74%
Altimeter 29.82" Hg
Pressure 1010 hPa
Elevation 20
METAR FNCA 221500Z 22007KT 9999 FEW020 BKN023 27/22 Q1010
Observed Flight Rules
May-22 @ 15:00 UTC
(3 hours ago)
MVFR
Wind Visibility
220° at 7 knots 10,000+ meters
Clouds
  • Few at 2,000' AGL
  • Broken at 2,300' AGL
Temperature Dewpoint
27°C / 81°F 22°C / 72°F
Humidity Altimeter Pressure
74% 29.82" Hg 1010 hPa